sensor_id;sensor_type;location;lat;lon;timestamp;P1;durP1;ratioP1;P2;durP2;ratioP2
61527;SDS011;47395;42.032;-8.634;2022-07-29T00:01:58;2.05;;;1.98;;
61527;SDS011;47395;42.032;-8.634;2022-07-29T00:03:59;2.13;;;2.03;;
61527;SDS011;47395;42.032;-8.634;2022-07-29T00:06:00;5.45;;;2.05;;
61527;SDS011;47395;42.032;-8.634;2022-07-29T00:08:01;4.13;;;2.40;;
61527;SDS011;47395;42.032;-8.634;2022-07-29T00:10:03;3.10;;;2.38;;
61527;SDS011;47395;42.032;-8.634;2022-07-29T00:12:04;3.13;;;2.58;;
61527;SDS011;47395;42.032;-8.634;2022-07-29T00:14:05;3.05;;;2.70;;
61527;SDS011;47395;42.032;-8.634;2022-07-29T00:16:06;3.60;;;2.60;;
61527;SDS011;47395;42.032;-8.634;2022-07-29T00:18:07;5.95;;;2.40;;
61527;SDS011;47395;42.032;-8.634;2022-07-29T00:20:08;2.75;;;2.47;;
61527;SDS011;47395;42.032;-8.634;2022-07-29T00:22:09;3.17;;;2.42;;
61527;SDS011;47395;42.032;-8.634;2022-07-29T00:24:10;2.75;;;2.55;;
61527;SDS011;47395;42.032;-8.634;2022-07-29T00:26:11;3.85;;;2.63;;
61527;SDS011;47395;42.032;-8.634;2022-07-29T00:28:12;2.80;;;2.50;;
61527;SDS011;47395;42.032;-8.634;2022-07-29T00:30:13;6.35;;;2.50;;
61527;SDS011;47395;42.032;-8.634;2022-07-29T00:32:14;6.20;;;2.53;;
61527;SDS011;47395;42.032;-8.634;2022-07-29T00:34:15;3.22;;;2.50;;
61527;SDS011;47395;42.032;-8.634;2022-07-29T00:36:34;6.85;;;2.88;;
61527;SDS011;47395;42.032;-8.634;2022-07-29T00:38:35;4.93;;;2.60;;
61527;SDS011;47395;42.032;-8.634;2022-07-29T00:40:36;3.15;;;2.75;;
61527;SDS011;47395;42.032;-8.634;2022-07-29T00:42:47;8.63;;;2.67;;
61527;SDS011;47395;42.032;-8.634;2022-07-29T00:44:48;3.22;;;2.70;;
61527;SDS011;47395;42.032;-8.634;2022-07-29T00:46:49;5.47;;;2.72;;
61527;SDS011;47395;42.032;-8.634;2022-07-29T00:48:50;4.30;;;2.75;;
61527;SDS011;47395;42.032;-8.634;2022-07-29T00:50:51;3.20;;;2.50;;
61527;SDS011;47395;42.032;-8.634;2022-07-29T00:52:52;2.92;;;2.70;;
61527;SDS011;47395;42.032;-8.634;2022-07-29T00:54:53;7.95;;;3.42;;
61527;SDS011;47395;42.032;-8.634;2022-07-29T00:56:55;5.55;;;2.60;;
61527;SDS011;47395;42.032;-8.634;2022-07-29T00:58:58;2.95;;;2.75;;
61527;SDS011;47395;42.032;-8.634;2022-07-29T01:01:00;10.23;;;2.40;;
61527;SDS011;47395;42.032;-8.634;2022-07-29T01:03:01;6.65;;;2.55;;
61527;SDS011;47395;42.032;-8.634;2022-07-29T01:05:02;4.85;;;2.72;;
61527;SDS011;47395;42.032;-8.634;2022-07-29T01:07:05;3.40;;;2.58;;
61527;SDS011;47395;42.032;-8.634;2022-07-29T01:09:07;2.60;;;2.40;;
61527;SDS011;47395;42.032;-8.634;2022-07-29T01:11:08;2.83;;;2.40;;
61527;SDS011;47395;42.032;-8.634;2022-07-29T01:13:10;4.45;;;2.60;;
61527;SDS011;47395;42.032;-8.634;2022-07-29T01:15:12;2.58;;;2.38;;
61527;SDS011;47395;42.032;-8.634;2022-07-29T01:17:26;2.92;;;2.70;;
61527;SDS011;47395;42.032;-8.634;2022-07-29T01:20:05;3.20;;;2.88;;
61527;SDS011;47395;42.032;-8.634;2022-07-29T01:22:35;5.97;;;2.93;;
61527;SDS011;47395;42.032;-8.634;2022-07-29T01:27:59;3.08;;;2.80;;
61527;SDS011;47395;42.032;-8.634;2022-07-29T01:30:22;2.90;;;2.72;;
61527;SDS011;47395;42.032;-8.634;2022-07-29T01:32:26;4.78;;;3.10;;
61527;SDS011;47395;42.032;-8.634;2022-07-29T01:34:53;4.78;;;2.50;;
61527;SDS011;47395;42.032;-8.634;2022-07-29T01:40:00;7.90;;;3.13;;
61527;SDS011;47395;42.032;-8.634;2022-07-29T01:42:10;4.45;;;2.80;;
61527;SDS011;47395;42.032;-8.634;2022-07-29T01:44:20;6.18;;;3.30;;
61527;SDS011;47395;42.032;-8.634;2022-07-29T01:46:34;3.47;;;2.65;;
61527;SDS011;47395;42.032;-8.634;2022-07-29T01:48:41;5.05;;;2.95;;
61527;SDS011;47395;42.032;-8.634;2022-07-29T01:50:52;4.18;;;3.17;;
61527;SDS011;47395;42.032;-8.634;2022-07-29T01:52:58;7.25;;;2.90;;
61527;SDS011;47395;42.032;-8.634;2022-07-29T01:55:02;4.47;;;3.75;;
61527;SDS011;47395;42.032;-8.634;2022-07-29T01:57:09;4.25;;;3.13;;
61527;SDS011;47395;42.032;-8.634;2022-07-29T01:59:13;5.47;;;3.13;;
61527;SDS011;47395;42.032;-8.634;2022-07-29T02:01:16;3.58;;;3.10;;
61527;SDS011;47395;42.032;-8.634;2022-07-29T02:03:18;9.27;;;3.50;;
61527;SDS011;47395;42.032;-8.634;2022-07-29T02:05:19;6.03;;;3.53;;
61527;SDS011;47395;42.032;-8.634;2022-07-29T02:07:23;3.33;;;3.03;;
61527;SDS011;47395;42.032;-8.634;2022-07-29T02:09:28;4.38;;;3.45;;
61527;SDS011;47395;42.032;-8.634;2022-07-29T02:11:32;3.78;;;3.30;;
61527;SDS011;47395;42.032;-8.634;2022-07-29T02:13:35;3.65;;;3.35;;
61527;SDS011;47395;42.032;-8.634;2022-07-29T02:15:38;3.60;;;3.30;;
61527;SDS011;47395;42.032;-8.634;2022-07-29T02:17:46;8.82;;;3.60;;
61527;SDS011;47395;42.032;-8.634;2022-07-29T02:19:52;3.47;;;3.17;;
61527;SDS011;47395;42.032;-8.634;2022-07-29T02:21:57;5.80;;;3.10;;
61527;SDS011;47395;42.032;-8.634;2022-07-29T02:24:00;7.15;;;3.55;;
61527;SDS011;47395;42.032;-8.634;2022-07-29T02:26:02;4.78;;;3.20;;
61527;SDS011;47395;42.032;-8.634;2022-07-29T02:28:05;3.53;;;3.33;;
61527;SDS011;47395;42.032;-8.634;2022-07-29T02:30:07;4.88;;;3.50;;
61527;SDS011;47395;42.032;-8.634;2022-07-29T02:32:10;4.00;;;3.15;;
61527;SDS011;47395;42.032;-8.634;2022-07-29T02:34:14;4.15;;;3.05;;
61527;SDS011;47395;42.032;-8.634;2022-07-29T02:36:17;6.80;;;3.50;;
61527;SDS011;47395;42.032;-8.634;2022-07-29T02:38:23;3.85;;;3.38;;
61527;SDS011;47395;42.032;-8.634;2022-07-29T02:40:46;5.35;;;3.20;;
61527;SDS011;47395;42.032;-8.634;2022-07-29T02:42:48;3.22;;;2.95;;
61527;SDS011;47395;42.032;-8.634;2022-07-29T02:44:50;7.65;;;3.22;;
61527;SDS011;47395;42.032;-8.634;2022-07-29T02:46:53;3.70;;;3.40;;
61527;SDS011;47395;42.032;-8.634;2022-07-29T02:49:18;3.13;;;3.00;;
61527;SDS011;47395;42.032;-8.634;2022-07-29T02:51:43;6.55;;;3.67;;
61527;SDS011;47395;42.032;-8.634;2022-07-29T02:53:48;3.65;;;3.35;;
61527;SDS011;47395;42.032;-8.634;2022-07-29T02:55:55;4.53;;;3.67;;
61527;SDS011;47395;42.032;-8.634;2022-07-29T02:57:59;3.83;;;3.45;;
61527;SDS011;47395;42.032;-8.634;2022-07-29T03:00:07;4.38;;;3.40;;
61527;SDS011;47395;42.032;-8.634;2022-07-29T03:02:09;5.30;;;3.33;;
61527;SDS011;47395;42.032;-8.634;2022-07-29T03:04:11;5.07;;;3.53;;
61527;SDS011;47395;42.032;-8.634;2022-07-29T03:06:14;5.40;;;3.75;;
61527;SDS011;47395;42.032;-8.634;2022-07-29T03:08:17;4.15;;;3.75;;
61527;SDS011;47395;42.032;-8.634;2022-07-29T03:10:18;8.43;;;3.78;;
61527;SDS011;47395;42.032;-8.634;2022-07-29T03:12:20;4.57;;;3.67;;
61527;SDS011;47395;42.032;-8.634;2022-07-29T03:14:21;8.63;;;4.10;;
61527;SDS011;47395;42.032;-8.634;2022-07-29T03:16:23;7.53;;;3.53;;
61527;SDS011;47395;42.032;-8.634;2022-07-29T03:18:25;3.33;;;3.10;;
61527;SDS011;47395;42.032;-8.634;2022-07-29T03:20:27;3.67;;;3.28;;
61527;SDS011;47395;42.032;-8.634;2022-07-29T03:22:28;4.40;;;3.63;;
61527;SDS011;47395;42.032;-8.634;2022-07-29T03:24:34;3.38;;;3.17;;
61527;SDS011;47395;42.032;-8.634;2022-07-29T03:26:36;6.50;;;3.90;;
61527;SDS011;47395;42.032;-8.634;2022-07-29T03:28:37;4.40;;;3.63;;
61527;SDS011;47395;42.032;-8.634;2022-07-29T03:30:38;6.55;;;3.35;;
61527;SDS011;47395;42.032;-8.634;2022-07-29T03:32:39;3.40;;;3.22;;
61527;SDS011;47395;42.032;-8.634;2022-07-29T03:34:41;4.15;;;3.83;;
61527;SDS011;47395;42.032;-8.634;2022-07-29T03:36:42;3.25;;;3.13;;
61527;SDS011;47395;42.032;-8.634;2022-07-29T03:38:43;4.20;;;3.30;;
61527;SDS011;47395;42.032;-8.634;2022-07-29T03:40:52;3.95;;;3.58;;
61527;SDS011;47395;42.032;-8.634;2022-07-29T03:42:54;3.72;;;3.40;;
61527;SDS011;47395;42.032;-8.634;2022-07-29T03:44:57;5.18;;;3.47;;
61527;SDS011;47395;42.032;-8.634;2022-07-29T03:47:00;4.43;;;4.05;;
61527;SDS011;47395;42.032;-8.634;2022-07-29T03:49:03;7.90;;;3.25;;
61527;SDS011;47395;42.032;-8.634;2022-07-29T03:51:05;4.05;;;3.75;;
61527;SDS011;47395;42.032;-8.634;2022-07-29T03:53:06;3.60;;;3.30;;
61527;SDS011;47395;42.032;-8.634;2022-07-29T03:55:08;4.05;;;3.60;;
61527;SDS011;47395;42.032;-8.634;2022-07-29T03:57:10;6.07;;;3.97;;
61527;SDS011;47395;42.032;-8.634;2022-07-29T03:59:12;3.78;;;3.58;;
61527;SDS011;47395;42.032;-8.634;2022-07-29T04:06:10;10.70;;;4.53;;
61527;SDS011;47395;42.032;-8.634;2022-07-29T04:08:11;5.82;;;4.28;;
61527;SDS011;47395;42.032;-8.634;2022-07-29T04:10:12;8.85;;;4.30;;
61527;SDS011;47395;42.032;-8.634;2022-07-29T04:12:13;4.78;;;3.80;;
61527;SDS011;47395;42.032;-8.634;2022-07-29T04:14:14;7.13;;;3.80;;
61527;SDS011;47395;42.032;-8.634;2022-07-29T04:16:15;6.15;;;3.95;;
61527;SDS011;47395;42.032;-8.634;2022-07-29T04:18:16;4.90;;;4.03;;
61527;SDS011;47395;42.032;-8.634;2022-07-29T04:20:16;6.70;;;4.13;;
61527;SDS011;47395;42.032;-8.634;2022-07-29T04:22:18;6.95;;;4.10;;
61527;SDS011;47395;42.032;-8.634;2022-07-29T04:24:19;4.78;;;3.58;;
61527;SDS011;47395;42.032;-8.634;2022-07-29T04:26:20;4.78;;;3.70;;
61527;SDS011;47395;42.032;-8.634;2022-07-29T04:28:21;5.95;;;3.97;;
61527;SDS011;47395;42.032;-8.634;2022-07-29T04:30:22;6.80;;;3.40;;
61527;SDS011;47395;42.032;-8.634;2022-07-29T04:32:23;4.32;;;3.45;;
61527;SDS011;47395;42.032;-8.634;2022-07-29T04:34:25;3.50;;;3.17;;
61527;SDS011;47395;42.032;-8.634;2022-07-29T04:36:25;5.63;;;3.88;;
61527;SDS011;47395;42.032;-8.634;2022-07-29T04:38:28;4.65;;;3.92;;
61527;SDS011;47395;42.032;-8.634;2022-07-29T04:40:29;3.83;;;3.63;;
61527;SDS011;47395;42.032;-8.634;2022-07-29T04:42:30;3.97;;;3.55;;
61527;SDS011;47395;42.032;-8.634;2022-07-29T04:44:30;4.40;;;4.00;;
61527;SDS011;47395;42.032;-8.634;2022-07-29T04:46:31;6.95;;;3.90;;
61527;SDS011;47395;42.032;-8.634;2022-07-29T04:48:32;4.40;;;4.07;;
61527;SDS011;47395;42.032;-8.634;2022-07-29T04:50:33;5.43;;;3.40;;
61527;SDS011;47395;42.032;-8.634;2022-07-29T04:52:34;4.25;;;3.95;;
61527;SDS011;47395;42.032;-8.634;2022-07-29T04:54:35;5.22;;;3.58;;
61527;SDS011;47395;42.032;-8.634;2022-07-29T04:56:36;4.28;;;3.90;;
61527;SDS011;47395;42.032;-8.634;2022-07-29T04:58:37;6.10;;;3.80;;
61527;SDS011;47395;42.032;-8.634;2022-07-29T05:00:38;9.10;;;4.03;;
61527;SDS011;47395;42.032;-8.634;2022-07-29T05:02:40;4.28;;;3.95;;
61527;SDS011;47395;42.032;-8.634;2022-07-29T05:04:41;6.13;;;4.22;;
61527;SDS011;47395;42.032;-8.634;2022-07-29T05:06:41;5.85;;;3.90;;
61527;SDS011;47395;42.032;-8.634;2022-07-29T05:08:42;5.03;;;4.53;;
61527;SDS011;47395;42.032;-8.634;2022-07-29T05:10:45;4.53;;;3.95;;
61527;SDS011;47395;42.032;-8.634;2022-07-29T05:12:46;4.32;;;3.97;;
61527;SDS011;47395;42.032;-8.634;2022-07-29T05:14:47;7.95;;;4.20;;
61527;SDS011;47395;42.032;-8.634;2022-07-29T05:16:48;4.47;;;3.90;;
61527;SDS011;47395;42.032;-8.634;2022-07-29T05:18:51;5.57;;;4.25;;
61527;SDS011;47395;42.032;-8.634;2022-07-29T05:20:52;4.20;;;3.90;;
61527;SDS011;47395;42.032;-8.634;2022-07-29T05:22:52;4.10;;;3.90;;
61527;SDS011;47395;42.032;-8.634;2022-07-29T05:24:54;4.82;;;3.97;;
61527;SDS011;47395;42.032;-8.634;2022-07-29T05:26:54;6.45;;;4.20;;
61527;SDS011;47395;42.032;-8.634;2022-07-29T05:28:55;4.03;;;3.70;;
61527;SDS011;47395;42.032;-8.634;2022-07-29T05:30:57;4.45;;;4.10;;
61527;SDS011;47395;42.032;-8.634;2022-07-29T05:32:58;4.63;;;3.70;;
61527;SDS011;47395;42.032;-8.634;2022-07-29T05:34:59;4.35;;;4.05;;
61527;SDS011;47395;42.032;-8.634;2022-07-29T05:37:00;5.20;;;4.05;;
61527;SDS011;47395;42.032;-8.634;2022-07-29T05:39:01;4.32;;;3.90;;
61527;SDS011;47395;42.032;-8.634;2022-07-29T05:41:02;6.00;;;4.43;;
61527;SDS011;47395;42.032;-8.634;2022-07-29T05:43:04;5.00;;;4.07;;
61527;SDS011;47395;42.032;-8.634;2022-07-29T05:45:05;4.10;;;3.80;;
61527;SDS011;47395;42.032;-8.634;2022-07-29T05:47:06;4.70;;;4.30;;
61527;SDS011;47395;42.032;-8.634;2022-07-29T05:49:07;5.65;;;4.47;;
61527;SDS011;47395;42.032;-8.634;2022-07-29T05:51:08;4.10;;;3.90;;
61527;SDS011;47395;42.032;-8.634;2022-07-29T05:53:09;6.72;;;4.55;;
61527;SDS011;47395;42.032;-8.634;2022-07-29T05:55:10;5.15;;;4.18;;
61527;SDS011;47395;42.032;-8.634;2022-07-29T05:57:18;5.43;;;4.47;;
61527;SDS011;47395;42.032;-8.634;2022-07-29T05:59:20;4.38;;;3.97;;
61527;SDS011;47395;42.032;-8.634;2022-07-29T06:01:20;6.47;;;4.60;;
61527;SDS011;47395;42.032;-8.634;2022-07-29T06:03:21;5.50;;;4.10;;
61527;SDS011;47395;42.032;-8.634;2022-07-29T06:05:23;5.05;;;4.07;;
61527;SDS011;47395;42.032;-8.634;2022-07-29T06:07:24;4.35;;;3.95;;
61527;SDS011;47395;42.032;-8.634;2022-07-29T06:09:25;5.60;;;4.05;;
61527;SDS011;47395;42.032;-8.634;2022-07-29T06:11:26;7.03;;;3.80;;
61527;SDS011;47395;42.032;-8.634;2022-07-29T06:13:27;10.73;;;4.28;;
61527;SDS011;47395;42.032;-8.634;2022-07-29T06:15:28;8.40;;;3.85;;
61527;SDS011;47395;42.032;-8.634;2022-07-29T06:17:29;9.80;;;4.13;;
61527;SDS011;47395;42.032;-8.634;2022-07-29T06:19:29;4.53;;;3.63;;
61527;SDS011;47395;42.032;-8.634;2022-07-29T06:21:30;5.32;;;4.00;;
61527;SDS011;47395;42.032;-8.634;2022-07-29T06:23:31;7.55;;;3.83;;
61527;SDS011;47395;42.032;-8.634;2022-07-29T06:25:32;4.30;;;3.65;;
61527;SDS011;47395;42.032;-8.634;2022-07-29T06:27:35;7.70;;;3.95;;
61527;SDS011;47395;42.032;-8.634;2022-07-29T06:29:36;7.68;;;4.18;;
61527;SDS011;47395;42.032;-8.634;2022-07-29T06:31:37;5.07;;;4.03;;
61527;SDS011;47395;42.032;-8.634;2022-07-29T06:33:38;7.05;;;3.63;;
61527;SDS011;47395;42.032;-8.634;2022-07-29T06:35:39;4.80;;;3.90;;
61527;SDS011;47395;42.032;-8.634;2022-07-29T06:37:42;4.10;;;3.67;;
61527;SDS011;47395;42.032;-8.634;2022-07-29T06:39:43;3.70;;;3.40;;
61527;SDS011;47395;42.032;-8.634;2022-07-29T06:41:46;5.13;;;3.45;;
61527;SDS011;47395;42.032;-8.634;2022-07-29T06:43:50;5.32;;;3.80;;
61527;SDS011;47395;42.032;-8.634;2022-07-29T06:45:51;5.78;;;3.38;;
61527;SDS011;47395;42.032;-8.634;2022-07-29T06:47:52;5.78;;;3.60;;
61527;SDS011;47395;42.032;-8.634;2022-07-29T06:49:53;4.20;;;3.50;;
61527;SDS011;47395;42.032;-8.634;2022-07-29T06:51:54;5.05;;;3.40;;
61527;SDS011;47395;42.032;-8.634;2022-07-29T06:53:56;4.88;;;3.65;;
61527;SDS011;47395;42.032;-8.634;2022-07-29T06:55:58;6.57;;;3.50;;
61527;SDS011;47395;42.032;-8.634;2022-07-29T06:58:00;6.97;;;3.40;;
61527;SDS011;47395;42.032;-8.634;2022-07-29T07:00:01;6.13;;;3.95;;
61527;SDS011;47395;42.032;-8.634;2022-07-29T07:02:05;6.78;;;3.78;;
61527;SDS011;47395;42.032;-8.634;2022-07-29T07:04:06;3.80;;;3.50;;
61527;SDS011;47395;42.032;-8.634;2022-07-29T07:06:08;3.20;;;3.00;;
61527;SDS011;47395;42.032;-8.634;2022-07-29T07:08:10;7.90;;;3.35;;
61527;SDS011;47395;42.032;-8.634;2022-07-29T07:10:11;3.63;;;3.30;;
61527;SDS011;47395;42.032;-8.634;2022-07-29T07:12:12;8.18;;;2.97;;
61527;SDS011;47395;42.032;-8.634;2022-07-29T07:14:13;4.97;;;3.08;;
61527;SDS011;47395;42.032;-8.634;2022-07-29T07:16:14;4.38;;;3.10;;
61527;SDS011;47395;42.032;-8.634;2022-07-29T07:18:15;4.80;;;3.08;;
61527;SDS011;47395;42.032;-8.634;2022-07-29T07:20:16;3.10;;;2.80;;
61527;SDS011;47395;42.032;-8.634;2022-07-29T07:22:18;4.97;;;2.80;;
61527;SDS011;47395;42.032;-8.634;2022-07-29T07:24:19;3.70;;;2.92;;
61527;SDS011;47395;42.032;-8.634;2022-07-29T07:26:19;4.57;;;2.83;;
61527;SDS011;47395;42.032;-8.634;2022-07-29T07:28:20;12.18;;;3.80;;
61527;SDS011;47395;42.032;-8.634;2022-07-29T07:30:21;5.75;;;2.90;;
61527;SDS011;47395;42.032;-8.634;2022-07-29T07:32:22;8.10;;;3.20;;
61527;SDS011;47395;42.032;-8.634;2022-07-29T07:34:23;7.40;;;3.05;;
61527;SDS011;47395;42.032;-8.634;2022-07-29T07:36:24;9.35;;;3.25;;
61527;SDS011;47395;42.032;-8.634;2022-07-29T07:38:25;7.97;;;3.38;;
61527;SDS011;47395;42.032;-8.634;2022-07-29T07:40:26;5.10;;;3.45;;
61527;SDS011;47395;42.032;-8.634;2022-07-29T07:42:27;4.82;;;3.13;;
61527;SDS011;47395;42.032;-8.634;2022-07-29T07:44:28;3.85;;;3.15;;
61527;SDS011;47395;42.032;-8.634;2022-07-29T07:46:29;4.15;;;3.10;;
61527;SDS011;47395;42.032;-8.634;2022-07-29T07:48:30;6.55;;;3.30;;
61527;SDS011;47395;42.032;-8.634;2022-07-29T07:50:31;3.90;;;2.95;;
61527;SDS011;47395;42.032;-8.634;2022-07-29T07:52:32;3.05;;;2.85;;
61527;SDS011;47395;42.032;-8.634;2022-07-29T07:54:33;7.10;;;3.00;;
61527;SDS011;47395;42.032;-8.634;2022-07-29T07:56:34;5.45;;;3.50;;
61527;SDS011;47395;42.032;-8.634;2022-07-29T07:58:36;5.97;;;3.10;;
61527;SDS011;47395;42.032;-8.634;2022-07-29T08:00:37;7.32;;;3.22;;
61527;SDS011;47395;42.032;-8.634;2022-07-29T08:02:38;4.50;;;2.97;;
61527;SDS011;47395;42.032;-8.634;2022-07-29T08:04:40;2.92;;;2.63;;
61527;SDS011;47395;42.032;-8.634;2022-07-29T08:06:41;4.55;;;2.50;;
61527;SDS011;47395;42.032;-8.634;2022-07-29T08:08:42;3.13;;;2.55;;
61527;SDS011;47395;42.032;-8.634;2022-07-29T08:10:46;4.10;;;2.58;;
61527;SDS011;47395;42.032;-8.634;2022-07-29T08:12:53;5.88;;;2.90;;
61527;SDS011;47395;42.032;-8.634;2022-07-29T08:14:54;5.28;;;2.42;;
61527;SDS011;47395;42.032;-8.634;2022-07-29T08:16:55;7.22;;;2.78;;
61527;SDS011;47395;42.032;-8.634;2022-07-29T08:18:56;8.48;;;2.70;;
61527;SDS011;47395;42.032;-8.634;2022-07-29T08:20:57;9.80;;;2.83;;
61527;SDS011;47395;42.032;-8.634;2022-07-29T08:22:58;3.05;;;2.47;;
61527;SDS011;47395;42.032;-8.634;2022-07-29T08:24:59;2.45;;;2.35;;
61527;SDS011;47395;42.032;-8.634;2022-07-29T08:27:00;2.88;;;2.20;;
61527;SDS011;47395;42.032;-8.634;2022-07-29T08:29:01;5.40;;;2.50;;
61527;SDS011;47395;42.032;-8.634;2022-07-29T08:31:02;8.23;;;2.60;;
61527;SDS011;47395;42.032;-8.634;2022-07-29T08:33:03;7.07;;;3.00;;
61527;SDS011;47395;42.032;-8.634;2022-07-29T08:35:04;5.82;;;2.70;;
61527;SDS011;47395;42.032;-8.634;2022-07-29T08:37:05;4.93;;;2.45;;
61527;SDS011;47395;42.032;-8.634;2022-07-29T08:39:07;6.90;;;2.75;;
61527;SDS011;47395;42.032;-8.634;2022-07-29T08:41:08;5.35;;;2.60;;
61527;SDS011;47395;42.032;-8.634;2022-07-29T08:43:08;2.85;;;2.00;;
61527;SDS011;47395;42.032;-8.634;2022-07-29T08:45:10;4.38;;;2.13;;
61527;SDS011;47395;42.032;-8.634;2022-07-29T08:47:13;3.45;;;2.13;;
61527;SDS011;47395;42.032;-8.634;2022-07-29T08:49:15;4.93;;;1.75;;
61527;SDS011;47395;42.032;-8.634;2022-07-29T08:51:18;4.82;;;1.80;;
61527;SDS011;47395;42.032;-8.634;2022-07-29T08:53:20;4.25;;;1.70;;
61527;SDS011;47395;42.032;-8.634;2022-07-29T08:55:22;4.70;;;1.90;;
61527;SDS011;47395;42.032;-8.634;2022-07-29T08:57:23;2.80;;;2.05;;
61527;SDS011;47395;42.032;-8.634;2022-07-29T08:59:26;2.85;;;2.17;;
61527;SDS011;47395;42.032;-8.634;2022-07-29T09:01:28;2.35;;;1.85;;
61527;SDS011;47395;42.032;-8.634;2022-07-29T09:03:32;4.50;;;1.83;;
61527;SDS011;47395;42.032;-8.634;2022-07-29T09:05:36;6.68;;;1.80;;
61527;SDS011;47395;42.032;-8.634;2022-07-29T09:07:39;4.88;;;2.13;;
61527;SDS011;47395;42.032;-8.634;2022-07-29T09:09:43;7.05;;;1.75;;
61527;SDS011;47395;42.032;-8.634;2022-07-29T09:11:45;4.05;;;1.90;;
61527;SDS011;47395;42.032;-8.634;2022-07-29T09:13:46;6.18;;;2.55;;
61527;SDS011;47395;42.032;-8.634;2022-07-29T09:15:48;8.82;;;1.75;;
61527;SDS011;47395;42.032;-8.634;2022-07-29T09:17:49;3.72;;;1.80;;
61527;SDS011;47395;42.032;-8.634;2022-07-29T09:19:50;3.35;;;2.03;;
61527;SDS011;47395;42.032;-8.634;2022-07-29T09:21:52;1.83;;;1.73;;
61527;SDS011;47395;42.032;-8.634;2022-07-29T09:26:21;3.35;;;1.90;;
61527;SDS011;47395;42.032;-8.634;2022-07-29T09:28:29;1.80;;;1.40;;
61527;SDS011;47395;42.032;-8.634;2022-07-29T09:30:30;5.47;;;1.75;;
61527;SDS011;47395;42.032;-8.634;2022-07-29T09:32:31;1.60;;;1.50;;
61527;SDS011;47395;42.032;-8.634;2022-07-29T09:34:33;3.05;;;1.65;;
61527;SDS011;47395;42.032;-8.634;2022-07-29T09:36:41;1.70;;;1.50;;
61527;SDS011;47395;42.032;-8.634;2022-07-29T09:38:56;1.75;;;1.65;;
61527;SDS011;47395;42.032;-8.634;2022-07-29T09:40:59;1.58;;;1.45;;
61527;SDS011;47395;42.032;-8.634;2022-07-29T09:43:09;4.13;;;1.42;;
61527;SDS011;47395;42.032;-8.634;2022-07-29T09:45:34;2.05;;;1.27;;
61527;SDS011;47395;42.032;-8.634;2022-07-29T09:47:41;1.70;;;1.20;;
61527;SDS011;47395;42.032;-8.634;2022-07-29T09:49:57;2.38;;;1.50;;
61527;SDS011;47395;42.032;-8.634;2022-07-29T09:52:00;3.22;;;1.45;;
61527;SDS011;47395;42.032;-8.634;2022-07-29T09:56:39;6.85;;;1.60;;
61527;SDS011;47395;42.032;-8.634;2022-07-29T09:58:41;1.60;;;1.50;;
61527;SDS011;47395;42.032;-8.634;2022-07-29T10:00:42;3.30;;;1.40;;
61527;SDS011;47395;42.032;-8.634;2022-07-29T10:02:44;1.35;;;1.30;;
61527;SDS011;47395;42.032;-8.634;2022-07-29T10:04:46;4.88;;;1.63;;
61527;SDS011;47395;42.032;-8.634;2022-07-29T10:06:57;2.45;;;1.60;;
61527;SDS011;47395;42.032;-8.634;2022-07-29T10:09:08;2.00;;;1.38;;
61527;SDS011;47395;42.032;-8.634;2022-07-29T10:11:10;1.75;;;1.40;;
61527;SDS011;47395;42.032;-8.634;2022-07-29T10:13:13;1.40;;;1.40;;
61527;SDS011;47395;42.032;-8.634;2022-07-29T10:15:15;5.45;;;1.30;;
61527;SDS011;47395;42.032;-8.634;2022-07-29T10:17:16;2.15;;;1.35;;
61527;SDS011;47395;42.032;-8.634;2022-07-29T10:19:18;1.85;;;1.75;;
61527;SDS011;47395;42.032;-8.634;2022-07-29T10:21:20;5.45;;;1.60;;
61527;SDS011;47395;42.032;-8.634;2022-07-29T10:23:21;2.45;;;1.50;;
61527;SDS011;47395;42.032;-8.634;2022-07-29T10:25:24;3.50;;;2.42;;
61527;SDS011;47395;42.032;-8.634;2022-07-29T10:27:26;5.18;;;1.90;;
61527;SDS011;47395;42.032;-8.634;2022-07-29T10:29:26;2.80;;;2.00;;
61527;SDS011;47395;42.032;-8.634;2022-07-29T10:31:31;5.43;;;1.67;;
61527;SDS011;47395;42.032;-8.634;2022-07-29T10:34:04;1.85;;;1.70;;
61527;SDS011;47395;42.032;-8.634;2022-07-29T10:40:39;9.65;;;1.60;;
61527;SDS011;47395;42.032;-8.634;2022-07-29T10:43:22;3.88;;;1.45;;
61527;SDS011;47395;42.032;-8.634;2022-07-29T10:45:26;2.83;;;1.50;;
61527;SDS011;47395;42.032;-8.634;2022-07-29T10:47:29;1.70;;;1.60;;
61527;SDS011;47395;42.032;-8.634;2022-07-29T10:49:31;6.38;;;1.70;;
61527;SDS011;47395;42.032;-8.634;2022-07-29T10:53:57;6.13;;;1.70;;
61527;SDS011;47395;42.032;-8.634;2022-07-29T10:55:59;3.70;;;1.52;;
61527;SDS011;47395;42.032;-8.634;2022-07-29T10:58:10;1.50;;;1.40;;
61527;SDS011;47395;42.032;-8.634;2022-07-29T11:02:43;3.08;;;1.40;;
61527;SDS011;47395;42.032;-8.634;2022-07-29T11:05:07;17.42;;;1.83;;
61527;SDS011;47395;42.032;-8.634;2022-07-29T11:07:09;1.98;;;1.85;;
61527;SDS011;47395;42.032;-8.634;2022-07-29T11:09:19;4.43;;;1.73;;
61527;SDS011;47395;42.032;-8.634;2022-07-29T11:13:45;3.90;;;1.33;;
61527;SDS011;47395;42.032;-8.634;2022-07-29T11:15:53;1.30;;;1.20;;
61527;SDS011;47395;42.032;-8.634;2022-07-29T11:22:47;1.50;;;1.40;;
61527;SDS011;47395;42.032;-8.634;2022-07-29T11:25:07;3.45;;;1.42;;
61527;SDS011;47395;42.032;-8.634;2022-07-29T11:27:17;2.45;;;1.50;;
61527;SDS011;47395;42.032;-8.634;2022-07-29T11:29:21;2.55;;;1.40;;
61527;SDS011;47395;42.032;-8.634;2022-07-29T11:31:35;2.58;;;1.75;;
61527;SDS011;47395;42.032;-8.634;2022-07-29T11:35:58;1.70;;;1.60;;
61527;SDS011;47395;42.032;-8.634;2022-07-29T11:38:25;1.55;;;1.55;;
61527;SDS011;47395;42.032;-8.634;2022-07-29T11:40:28;4.65;;;1.92;;
61527;SDS011;47395;42.032;-8.634;2022-07-29T11:42:38;2.05;;;1.60;;
61527;SDS011;47395;42.032;-8.634;2022-07-29T11:45:02;3.42;;;2.00;;
61527;SDS011;47395;42.032;-8.634;2022-07-29T11:47:21;1.92;;;1.75;;
61527;SDS011;47395;42.032;-8.634;2022-07-29T11:49:23;3.00;;;1.73;;
61527;SDS011;47395;42.032;-8.634;2022-07-29T11:51:26;1.92;;;1.60;;
61527;SDS011;47395;42.032;-8.634;2022-07-29T11:53:27;2.90;;;1.48;;
61527;SDS011;47395;42.032;-8.634;2022-07-29T11:55:29;3.70;;;1.70;;
61527;SDS011;47395;42.032;-8.634;2022-07-29T11:57:32;1.77;;;1.67;;
61527;SDS011;47395;42.032;-8.634;2022-07-29T11:59:39;2.33;;;1.65;;
61527;SDS011;47395;42.032;-8.634;2022-07-29T12:01:57;3.67;;;3.38;;
61527;SDS011;47395;42.032;-8.634;2022-07-29T12:04:02;1.88;;;1.77;;
61527;SDS011;47395;42.032;-8.634;2022-07-29T12:06:13;2.10;;;1.90;;
61527;SDS011;47395;42.032;-8.634;2022-07-29T12:08:15;2.88;;;1.58;;
61527;SDS011;47395;42.032;-8.634;2022-07-29T12:10:21;1.55;;;1.50;;
61527;SDS011;47395;42.032;-8.634;2022-07-29T12:12:22;1.60;;;1.50;;
61527;SDS011;47395;42.032;-8.634;2022-07-29T12:14:30;2.03;;;1.38;;
61527;SDS011;47395;42.032;-8.634;2022-07-29T12:16:35;2.40;;;1.60;;
61527;SDS011;47395;42.032;-8.634;2022-07-29T12:18:37;3.40;;;3.20;;
61527;SDS011;47395;42.032;-8.634;2022-07-29T12:20:38;7.35;;;6.65;;
61527;SDS011;47395;42.032;-8.634;2022-07-29T12:22:39;5.75;;;1.92;;
61527;SDS011;47395;42.032;-8.634;2022-07-29T12:24:42;1.80;;;1.70;;
61527;SDS011;47395;42.032;-8.634;2022-07-29T12:26:53;2.17;;;2.08;;
61527;SDS011;47395;42.032;-8.634;2022-07-29T12:28:55;1.80;;;1.70;;
61527;SDS011;47395;42.032;-8.634;2022-07-29T12:30:56;3.65;;;2.13;;
61527;SDS011;47395;42.032;-8.634;2022-07-29T12:32:58;3.67;;;2.13;;
61527;SDS011;47395;42.032;-8.634;2022-07-29T12:35:00;2.33;;;1.60;;
61527;SDS011;47395;42.032;-8.634;2022-07-29T12:37:06;2.70;;;2.15;;
61527;SDS011;47395;42.032;-8.634;2022-07-29T12:39:10;1.70;;;1.60;;
61527;SDS011;47395;42.032;-8.634;2022-07-29T12:41:11;2.22;;;1.77;;
61527;SDS011;47395;42.032;-8.634;2022-07-29T12:43:14;1.95;;;1.67;;
61527;SDS011;47395;42.032;-8.634;2022-07-29T12:45:17;1.63;;;1.60;;
61527;SDS011;47395;42.032;-8.634;2022-07-29T12:47:28;1.60;;;1.50;;
61527;SDS011;47395;42.032;-8.634;2022-07-29T12:49:29;5.65;;;1.85;;